sensor_id;sensor_type;location;lat;lon;timestamp;temperature;humidity
17571;DHT22;8903;52.220;20.978;2023-07-16T00:00:33;24.10;99.90
17571;DHT22;8903;52.220;20.978;2023-07-16T00:03:02;24.10;99.90
17571;DHT22;8903;52.220;20.978;2023-07-16T00:05:29;24.00;99.90
17571;DHT22;8903;52.220;20.978;2023-07-16T00:07:56;24.00;99.90
17571;DHT22;8903;52.220;20.978;2023-07-16T00:10:23;24.00;99.90
17571;DHT22;8903;52.220;20.978;2023-07-16T00:12:52;24.00;99.90
17571;DHT22;8903;52.220;20.978;2023-07-16T00:15:19;23.90;99.90
17571;DHT22;8903;52.220;20.978;2023-07-16T00:17:46;23.90;99.90
17571;DHT22;8903;52.220;20.978;2023-07-16T00:20:13;23.90;99.90
17571;DHT22;8903;52.220;20.978;2023-07-16T00:22:40;23.90;99.90
17571;DHT22;8903;52.220;20.978;2023-07-16T00:25:08;23.80;99.90
17571;DHT22;8903;52.220;20.978;2023-07-16T00:27:35;23.80;99.90
17571;DHT22;8903;52.220;20.978;2023-07-16T00:30:04;23.80;99.90
17571;DHT22;8903;52.220;20.978;2023-07-16T00:32:31;23.80;99.90
17571;DHT22;8903;52.220;20.978;2023-07-16T00:34:58;23.70;99.90
17571;DHT22;8903;52.220;20.978;2023-07-16T00:37:25;23.70;99.90
17571;DHT22;8903;52.220;20.978;2023-07-16T00:39:52;23.70;99.90
17571;DHT22;8903;52.220;20.978;2023-07-16T00:42:19;23.70;99.90
17571;DHT22;8903;52.220;20.978;2023-07-16T00:44:46;23.70;99.90
17571;DHT22;8903;52.220;20.978;2023-07-16T00:47:15;23.60;99.90
17571;DHT22;8903;52.220;20.978;2023-07-16T00:49:43;23.60;99.90
17571;DHT22;8903;52.220;20.978;2023-07-16T00:52:16;23.50;99.90
17571;DHT22;8903;52.220;20.978;2023-07-16T00:54:45;23.50;99.90
17571;DHT22;8903;52.220;20.978;2023-07-16T00:57:11;23.50;99.90
17571;DHT22;8903;52.220;20.978;2023-07-16T00:59:38;23.50;99.90
17571;DHT22;8903;52.220;20.978;2023-07-16T01:02:05;23.50;99.90
17571;DHT22;8903;52.220;20.978;2023-07-16T01:04:34;23.50;99.90
17571;DHT22;8903;52.220;20.978;2023-07-16T01:07:04;23.50;99.90
17571;DHT22;8903;52.220;20.978;2023-07-16T01:09:33;23.50;99.90
17571;DHT22;8903;52.220;20.978;2023-07-16T01:12:03;23.40;99.90
17571;DHT22;8903;52.220;20.978;2023-07-16T01:14:31;23.40;99.90
17571;DHT22;8903;52.220;20.978;2023-07-16T01:17:02;23.40;99.90
17571;DHT22;8903;52.220;20.978;2023-07-16T01:19:29;23.40;99.90
17571;DHT22;8903;52.220;20.978;2023-07-16T01:22:22;23.30;99.90
17571;DHT22;8903;52.220;20.978;2023-07-16T01:25:16;23.30;99.90
17571;DHT22;8903;52.220;20.978;2023-07-16T01:28:06;23.30;99.90
17571;DHT22;8903;52.220;20.978;2023-07-16T01:30:39;23.20;99.90
17571;DHT22;8903;52.220;20.978;2023-07-16T01:33:08;23.10;99.90
17571;DHT22;8903;52.220;20.978;2023-07-16T01:35:36;23.10;99.90
17571;DHT22;8903;52.220;20.978;2023-07-16T01:38:04;23.10;99.90
17571;DHT22;8903;52.220;20.978;2023-07-16T01:40:31;23.10;99.90
17571;DHT22;8903;52.220;20.978;2023-07-16T01:42:58;23.10;99.90
17571;DHT22;8903;52.220;20.978;2023-07-16T01:45:25;23.10;99.90
17571;DHT22;8903;52.220;20.978;2023-07-16T01:48:00;23.00;99.90
17571;DHT22;8903;52.220;20.978;2023-07-16T01:50:31;23.00;99.90
17571;DHT22;8903;52.220;20.978;2023-07-16T01:52:58;22.90;99.90
17571;DHT22;8903;52.220;20.978;2023-07-16T01:55:25;22.90;99.90
17571;DHT22;8903;52.220;20.978;2023-07-16T01:57:52;22.80;99.90
17571;DHT22;8903;52.220;20.978;2023-07-16T02:00:19;22.80;99.90
17571;DHT22;8903;52.220;20.978;2023-07-16T02:02:46;22.80;99.90
17571;DHT22;8903;52.220;20.978;2023-07-16T02:05:16;22.70;99.90
17571;DHT22;8903;52.220;20.978;2023-07-16T02:07:43;22.70;99.90
17571;DHT22;8903;52.220;20.978;2023-07-16T02:10:10;22.60;99.90
17571;DHT22;8903;52.220;20.978;2023-07-16T02:12:37;22.50;99.90
17571;DHT22;8903;52.220;20.978;2023-07-16T02:15:05;22.40;99.90
17571;DHT22;8903;52.220;20.978;2023-07-16T02:17:36;22.30;99.90
17571;DHT22;8903;52.220;20.978;2023-07-16T02:20:03;22.30;99.90
17571;DHT22;8903;52.220;20.978;2023-07-16T02:22:33;22.20;99.90
17571;DHT22;8903;52.220;20.978;2023-07-16T02:25:00;22.20;99.90
17571;DHT22;8903;52.220;20.978;2023-07-16T02:27:27;22.10;99.90
17571;DHT22;8903;52.220;20.978;2023-07-16T02:29:55;22.00;99.90
17571;DHT22;8903;52.220;20.978;2023-07-16T02:32:22;22.00;99.90
17571;DHT22;8903;52.220;20.978;2023-07-16T02:34:48;21.90;99.90
17571;DHT22;8903;52.220;20.978;2023-07-16T02:37:15;21.90;99.90
17571;DHT22;8903;52.220;20.978;2023-07-16T02:39:45;21.80;99.90
17571;DHT22;8903;52.220;20.978;2023-07-16T02:42:14;21.80;99.90
17571;DHT22;8903;52.220;20.978;2023-07-16T02:44:41;21.80;99.90
17571;DHT22;8903;52.220;20.978;2023-07-16T02:47:10;21.80;99.90
17571;DHT22;8903;52.220;20.978;2023-07-16T02:49:37;21.70;99.90
17571;DHT22;8903;52.220;20.978;2023-07-16T02:52:05;21.70;99.90
17571;DHT22;8903;52.220;20.978;2023-07-16T02:54:32;21.60;99.90
17571;DHT22;8903;52.220;20.978;2023-07-16T02:57:01;21.60;99.90
17571;DHT22;8903;52.220;20.978;2023-07-16T02:59:28;21.60;99.90
17571;DHT22;8903;52.220;20.978;2023-07-16T03:01:55;21.60;99.90
17571;DHT22;8903;52.220;20.978;2023-07-16T03:04:22;21.60;99.90
17571;DHT22;8903;52.220;20.978;2023-07-16T03:06:49;21.50;99.90
17571;DHT22;8903;52.220;20.978;2023-07-16T03:09:16;21.50;99.90
17571;DHT22;8903;52.220;20.978;2023-07-16T03:11:43;21.50;99.90
17571;DHT22;8903;52.220;20.978;2023-07-16T03:14:12;21.50;99.90
17571;DHT22;8903;52.220;20.978;2023-07-16T03:16:39;21.50;99.90
17571;DHT22;8903;52.220;20.978;2023-07-16T03:19:06;21.50;99.90
17571;DHT22;8903;52.220;20.978;2023-07-16T03:21:33;21.50;99.90
17571;DHT22;8903;52.220;20.978;2023-07-16T03:24:00;21.50;99.90
17571;DHT22;8903;52.220;20.978;2023-07-16T03:26:28;21.50;99.90
17571;DHT22;8903;52.220;20.978;2023-07-16T03:28:55;21.50;99.90
17571;DHT22;8903;52.220;20.978;2023-07-16T03:31:24;21.50;99.90
17571;DHT22;8903;52.220;20.978;2023-07-16T03:33:51;21.50;99.90
17571;DHT22;8903;52.220;20.978;2023-07-16T03:36:18;21.50;99.90
17571;DHT22;8903;52.220;20.978;2023-07-16T03:38:45;21.50;99.90
17571;DHT22;8903;52.220;20.978;2023-07-16T03:41:12;21.50;99.90
17571;DHT22;8903;52.220;20.978;2023-07-16T03:43:39;21.60;99.90
17571;DHT22;8903;52.220;20.978;2023-07-16T03:46:16;21.60;99.90
17571;DHT22;8903;52.220;20.978;2023-07-16T03:48:45;21.60;99.90
17571;DHT22;8903;52.220;20.978;2023-07-16T03:51:12;21.60;99.90
17571;DHT22;8903;52.220;20.978;2023-07-16T03:53:39;21.70;99.90
17571;DHT22;8903;52.220;20.978;2023-07-16T03:56:06;21.70;99.90
17571;DHT22;8903;52.220;20.978;2023-07-16T03:58:34;21.70;99.90
17571;DHT22;8903;52.220;20.978;2023-07-16T04:01:04;21.80;99.90
17571;DHT22;8903;52.220;20.978;2023-07-16T04:03:31;21.80;99.90
17571;DHT22;8903;52.220;20.978;2023-07-16T04:06:04;21.90;99.90
17571;DHT22;8903;52.220;20.978;2023-07-16T04:08:31;21.90;99.90
17571;DHT22;8903;52.220;20.978;2023-07-16T04:10:58;22.00;99.90
17571;DHT22;8903;52.220;20.978;2023-07-16T04:13:25;22.00;99.90
17571;DHT22;8903;52.220;20.978;2023-07-16T04:15:52;22.10;99.90
17571;DHT22;8903;52.220;20.978;2023-07-16T04:18:22;22.10;99.90
17571;DHT22;8903;52.220;20.978;2023-07-16T04:20:49;22.10;99.90
17571;DHT22;8903;52.220;20.978;2023-07-16T04:23:17;22.20;99.90
17571;DHT22;8903;52.220;20.978;2023-07-16T04:25:44;22.20;99.90
17571;DHT22;8903;52.220;20.978;2023-07-16T04:28:12;22.30;99.90
17571;DHT22;8903;52.220;20.978;2023-07-16T04:30:39;22.40;99.90
17571;DHT22;8903;52.220;20.978;2023-07-16T04:33:06;22.40;99.90
17571;DHT22;8903;52.220;20.978;2023-07-16T04:35:33;22.50;99.90
17571;DHT22;8903;52.220;20.978;2023-07-16T04:38:00;22.60;99.90
17571;DHT22;8903;52.220;20.978;2023-07-16T04:40:29;22.60;99.90
17571;DHT22;8903;52.220;20.978;2023-07-16T04:42:56;22.60;99.90
17571;DHT22;8903;52.220;20.978;2023-07-16T04:45:23;22.70;99.90
17571;DHT22;8903;52.220;20.978;2023-07-16T04:47:50;22.80;99.90
17571;DHT22;8903;52.220;20.978;2023-07-16T04:50:17;22.90;99.90
17571;DHT22;8903;52.220;20.978;2023-07-16T04:52:44;22.90;99.90
17571;DHT22;8903;52.220;20.978;2023-07-16T04:55:11;23.00;99.90
17571;DHT22;8903;52.220;20.978;2023-07-16T04:57:40;23.00;99.90
17571;DHT22;8903;52.220;20.978;2023-07-16T05:00:08;23.10;99.90
17571;DHT22;8903;52.220;20.978;2023-07-16T05:02:35;23.10;99.90
17571;DHT22;8903;52.220;20.978;2023-07-16T05:05:03;23.20;99.90
17571;DHT22;8903;52.220;20.978;2023-07-16T05:07:30;23.30;99.90
17571;DHT22;8903;52.220;20.978;2023-07-16T05:09:57;23.40;99.90
17571;DHT22;8903;52.220;20.978;2023-07-16T05:12:24;23.50;99.90
17571;DHT22;8903;52.220;20.978;2023-07-16T05:14:52;23.50;99.90
17571;DHT22;8903;52.220;20.978;2023-07-16T05:17:19;23.60;99.90
17571;DHT22;8903;52.220;20.978;2023-07-16T05:19:47;23.70;99.90
17571;DHT22;8903;52.220;20.978;2023-07-16T05:22:14;23.80;99.90
17571;DHT22;8903;52.220;20.978;2023-07-16T05:24:41;23.90;99.90
17571;DHT22;8903;52.220;20.978;2023-07-16T05:27:08;24.00;99.90
17571;DHT22;8903;52.220;20.978;2023-07-16T05:29:35;24.10;99.90
17571;DHT22;8903;52.220;20.978;2023-07-16T05:32:04;24.20;99.90
17571;DHT22;8903;52.220;20.978;2023-07-16T05:34:31;24.30;99.90
17571;DHT22;8903;52.220;20.978;2023-07-16T05:36:59;24.50;99.90
17571;DHT22;8903;52.220;20.978;2023-07-16T05:39:26;24.60;99.90
17571;DHT22;8903;52.220;20.978;2023-07-16T05:41:53;24.60;99.90
17571;DHT22;8903;52.220;20.978;2023-07-16T05:44:20;24.80;99.90
17571;DHT22;8903;52.220;20.978;2023-07-16T05:46:47;24.90;99.90
17571;DHT22;8903;52.220;20.978;2023-07-16T05:49:15;24.90;99.90
17571;DHT22;8903;52.220;20.978;2023-07-16T05:51:42;25.00;99.90
17571;DHT22;8903;52.220;20.978;2023-07-16T05:54:09;25.10;99.90
17571;DHT22;8903;52.220;20.978;2023-07-16T05:56:36;25.10;99.90
17571;DHT22;8903;52.220;20.978;2023-07-16T05:59:03;25.20;99.90
17571;DHT22;8903;52.220;20.978;2023-07-16T06:01:30;25.30;99.90
17571;DHT22;8903;52.220;20.978;2023-07-16T06:03:57;25.30;99.90
17571;DHT22;8903;52.220;20.978;2023-07-16T06:06:27;25.40;99.90
17571;DHT22;8903;52.220;20.978;2023-07-16T06:08:55;25.50;99.90
17571;DHT22;8903;52.220;20.978;2023-07-16T06:11:21;25.50;99.90
17571;DHT22;8903;52.220;20.978;2023-07-16T06:13:49;25.60;99.90
17571;DHT22;8903;52.220;20.978;2023-07-16T06:16:16;25.70;99.90
17571;DHT22;8903;52.220;20.978;2023-07-16T06:18:43;25.80;99.90
17571;DHT22;8903;52.220;20.978;2023-07-16T06:21:10;25.80;99.90
17571;DHT22;8903;52.220;20.978;2023-07-16T06:23:38;25.90;99.90
17571;DHT22;8903;52.220;20.978;2023-07-16T06:26:05;25.90;99.90
17571;DHT22;8903;52.220;20.978;2023-07-16T06:28:32;26.00;99.90
17571;DHT22;8903;52.220;20.978;2023-07-16T06:30:59;26.00;99.90
17571;DHT22;8903;52.220;20.978;2023-07-16T06:33:26;26.10;99.90
17571;DHT22;8903;52.220;20.978;2023-07-16T06:35:53;26.10;99.90
17571;DHT22;8903;52.220;20.978;2023-07-16T06:38:21;26.20;99.90
17571;DHT22;8903;52.220;20.978;2023-07-16T06:40:50;26.20;99.90
17571;DHT22;8903;52.220;20.978;2023-07-16T06:43:18;26.30;99.90
17571;DHT22;8903;52.220;20.978;2023-07-16T06:45:49;26.30;99.90
17571;DHT22;8903;52.220;20.978;2023-07-16T06:48:16;26.40;99.90
17571;DHT22;8903;52.220;20.978;2023-07-16T06:50:43;26.50;99.90
17571;DHT22;8903;52.220;20.978;2023-07-16T06:53:10;26.60;99.90
17571;DHT22;8903;52.220;20.978;2023-07-16T06:55:37;26.70;99.90
17571;DHT22;8903;52.220;20.978;2023-07-16T06:58:05;26.90;99.90
17571;DHT22;8903;52.220;20.978;2023-07-16T07:00:33;27.00;99.90
17571;DHT22;8903;52.220;20.978;2023-07-16T07:03:00;27.10;99.90
17571;DHT22;8903;52.220;20.978;2023-07-16T07:05:27;27.30;99.90
17571;DHT22;8903;52.220;20.978;2023-07-16T07:07:54;27.40;99.90
17571;DHT22;8903;52.220;20.978;2023-07-16T07:10:21;27.40;99.90
17571;DHT22;8903;52.220;20.978;2023-07-16T07:12:48;27.50;99.90
17571;DHT22;8903;52.220;20.978;2023-07-16T07:15:16;27.50;99.90
17571;DHT22;8903;52.220;20.978;2023-07-16T07:17:43;27.60;99.90
17571;DHT22;8903;52.220;20.978;2023-07-16T07:20:13;27.70;99.90
17571;DHT22;8903;52.220;20.978;2023-07-16T07:22:40;27.80;99.90
17571;DHT22;8903;52.220;20.978;2023-07-16T07:25:07;27.70;99.90
17571;DHT22;8903;52.220;20.978;2023-07-16T07:27:34;27.80;99.90
17571;DHT22;8903;52.220;20.978;2023-07-16T07:30:02;27.90;99.90
17571;DHT22;8903;52.220;20.978;2023-07-16T07:32:30;28.00;99.90
17571;DHT22;8903;52.220;20.978;2023-07-16T07:34:57;28.20;99.90
17571;DHT22;8903;52.220;20.978;2023-07-16T07:37:24;28.20;99.90
17571;DHT22;8903;52.220;20.978;2023-07-16T07:40:17;28.30;99.90
17571;DHT22;8903;52.220;20.978;2023-07-16T07:43:09;28.40;99.90
17571;DHT22;8903;52.220;20.978;2023-07-16T07:46:01;28.50;99.90
17571;DHT22;8903;52.220;20.978;2023-07-16T07:48:54;28.60;99.90
17571;DHT22;8903;52.220;20.978;2023-07-16T07:51:26;28.70;99.90
17571;DHT22;8903;52.220;20.978;2023-07-16T07:53:53;28.80;99.90
17571;DHT22;8903;52.220;20.978;2023-07-16T07:56:19;28.90;99.90
17571;DHT22;8903;52.220;20.978;2023-07-16T07:58:46;29.00;99.90
17571;DHT22;8903;52.220;20.978;2023-07-16T08:01:14;29.10;99.90
17571;DHT22;8903;52.220;20.978;2023-07-16T08:03:41;29.20;99.90
17571;DHT22;8903;52.220;20.978;2023-07-16T08:06:09;29.20;99.90
17571;DHT22;8903;52.220;20.978;2023-07-16T08:08:38;29.30;99.90
17571;DHT22;8903;52.220;20.978;2023-07-16T08:11:05;29.50;99.90
17571;DHT22;8903;52.220;20.978;2023-07-16T08:13:32;29.60;99.90
17571;DHT22;8903;52.220;20.978;2023-07-16T08:15:59;29.70;99.90
17571;DHT22;8903;52.220;20.978;2023-07-16T08:18:26;29.90;99.50
17571;DHT22;8903;52.220;20.978;2023-07-16T08:20:53;29.90;98.80
17571;DHT22;8903;52.220;20.978;2023-07-16T08:23:22;30.00;98.80
17571;DHT22;8903;52.220;20.978;2023-07-16T08:25:49;30.10;98.90
17571;DHT22;8903;52.220;20.978;2023-07-16T08:28:17;30.20;99.00
17571;DHT22;8903;52.220;20.978;2023-07-16T08:30:46;30.30;98.70
17571;DHT22;8903;52.220;20.978;2023-07-16T08:33:13;30.40;98.60
17571;DHT22;8903;52.220;20.978;2023-07-16T08:35:41;30.40;98.30
17571;DHT22;8903;52.220;20.978;2023-07-16T08:38:08;30.60;97.60
17571;DHT22;8903;52.220;20.978;2023-07-16T08:40:37;30.70;97.70
17571;DHT22;8903;52.220;20.978;2023-07-16T08:43:05;30.80;97.70
17571;DHT22;8903;52.220;20.978;2023-07-16T08:45:38;30.90;97.20
17571;DHT22;8903;52.220;20.978;2023-07-16T08:48:07;30.90;96.30
17571;DHT22;8903;52.220;20.978;2023-07-16T08:50:35;31.10;96.00
17571;DHT22;8903;52.220;20.978;2023-07-16T08:53:04;31.20;96.10
17571;DHT22;8903;52.220;20.978;2023-07-16T08:55:31;31.30;95.60
17571;DHT22;8903;52.220;20.978;2023-07-16T08:58:01;31.40;95.50
17571;DHT22;8903;52.220;20.978;2023-07-16T09:00:29;31.50;95.40
17571;DHT22;8903;52.220;20.978;2023-07-16T09:02:56;31.40;95.40
17571;DHT22;8903;52.220;20.978;2023-07-16T09:05:24;31.50;95.20
17571;DHT22;8903;52.220;20.978;2023-07-16T09:07:51;31.50;95.20
17571;DHT22;8903;52.220;20.978;2023-07-16T09:10:18;31.50;95.50
17571;DHT22;8903;52.220;20.978;2023-07-16T09:12:45;31.60;95.40
17571;DHT22;8903;52.220;20.978;2023-07-16T09:15:17;31.70;95.40
17571;DHT22;8903;52.220;20.978;2023-07-16T09:17:47;31.70;95.20
17571;DHT22;8903;52.220;20.978;2023-07-16T09:20:15;31.70;95.10
17571;DHT22;8903;52.220;20.978;2023-07-16T09:22:42;31.70;95.00
17571;DHT22;8903;52.220;20.978;2023-07-16T09:25:09;31.70;94.80
17571;DHT22;8903;52.220;20.978;2023-07-16T09:27:37;31.80;94.70
17571;DHT22;8903;52.220;20.978;2023-07-16T09:30:04;31.80;94.70
17571;DHT22;8903;52.220;20.978;2023-07-16T09:32:36;31.90;94.80
17571;DHT22;8903;52.220;20.978;2023-07-16T09:35:07;32.10;94.70
17571;DHT22;8903;52.220;20.978;2023-07-16T09:37:36;32.10;94.40
17571;DHT22;8903;52.220;20.978;2023-07-16T09:40:05;32.10;94.50
17571;DHT22;8903;52.220;20.978;2023-07-16T09:42:36;32.10;94.50
17571;DHT22;8903;52.220;20.978;2023-07-16T09:45:06;32.20;94.80
17571;DHT22;8903;52.220;20.978;2023-07-16T09:47:33;32.30;94.60
17571;DHT22;8903;52.220;20.978;2023-07-16T09:50:03;32.30;94.60
17571;DHT22;8903;52.220;20.978;2023-07-16T09:52:31;32.50;94.60
17571;DHT22;8903;52.220;20.978;2023-07-16T09:55:02;32.60;94.50
17571;DHT22;8903;52.220;20.978;2023-07-16T09:57:32;32.70;94.50
17571;DHT22;8903;52.220;20.978;2023-07-16T10:00:03;32.80;94.10
17571;DHT22;8903;52.220;20.978;2023-07-16T10:02:38;32.80;94.30
17571;DHT22;8903;52.220;20.978;2023-07-16T10:05:14;32.90;93.60
17571;DHT22;8903;52.220;20.978;2023-07-16T10:07:41;33.00;93.30
17571;DHT22;8903;52.220;20.978;2023-07-16T10:10:09;33.10;92.80
17571;DHT22;8903;52.220;20.978;2023-07-16T10:12:37;33.20;92.80
17571;DHT22;8903;52.220;20.978;2023-07-16T10:15:05;33.30;92.70
17571;DHT22;8903;52.220;20.978;2023-07-16T10:17:32;33.40;92.70
17571;DHT22;8903;52.220;20.978;2023-07-16T10:20:01;33.40;93.00
17571;DHT22;8903;52.220;20.978;2023-07-16T10:22:36;33.30;93.40
17571;DHT22;8903;52.220;20.978;2023-07-16T10:25:05;33.30;93.20
17571;DHT22;8903;52.220;20.978;2023-07-16T10:27:33;33.30;93.40
17571;DHT22;8903;52.220;20.978;2023-07-16T10:30:02;33.30;93.30
17571;DHT22;8903;52.220;20.978;2023-07-16T10:32:31;33.30;93.50
17571;DHT22;8903;52.220;20.978;2023-07-16T10:34:59;33.30;93.20
17571;DHT22;8903;52.220;20.978;2023-07-16T10:37:26;33.30;93.50
17571;DHT22;8903;52.220;20.978;2023-07-16T10:39:56;33.30;93.60
17571;DHT22;8903;52.220;20.978;2023-07-16T10:42:24;33.20;93.90
17571;DHT22;8903;52.220;20.978;2023-07-16T10:44:52;33.10;94.00
17571;DHT22;8903;52.220;20.978;2023-07-16T10:47:22;33.20;94.20
17571;DHT22;8903;52.220;20.978;2023-07-16T10:49:50;33.20;94.60
17571;DHT22;8903;52.220;20.978;2023-07-16T10:52:18;33.30;94.60
17571;DHT22;8903;52.220;20.978;2023-07-16T10:54:45;33.30;94.40
17571;DHT22;8903;52.220;20.978;2023-07-16T10:57:14;33.30;94.50
17571;DHT22;8903;52.220;20.978;2023-07-16T10:59:43;33.30;94.50
17571;DHT22;8903;52.220;20.978;2023-07-16T11:02:12;33.30;94.70
17571;DHT22;8903;52.220;20.978;2023-07-16T11:04:39;33.40;95.00
17571;DHT22;8903;52.220;20.978;2023-07-16T11:07:07;33.40;95.20
17571;DHT22;8903;52.220;20.978;2023-07-16T11:09:40;33.50;95.00
17571;DHT22;8903;52.220;20.978;2023-07-16T11:12:11;33.50;94.90
17571;DHT22;8903;52.220;20.978;2023-07-16T11:14:43;33.50;94.80
17571;DHT22;8903;52.220;20.978;2023-07-16T11:17:11;33.40;94.60
17571;DHT22;8903;52.220;20.978;2023-07-16T11:19:39;33.40;94.70
17571;DHT22;8903;52.220;20.978;2023-07-16T11:22:09;33.50;94.60
17571;DHT22;8903;52.220;20.978;2023-07-16T11:24:37;33.70;94.70
17571;DHT22;8903;52.220;20.978;2023-07-16T11:27:05;33.90;93.90
17571;DHT22;8903;52.220;20.978;2023-07-16T11:29:35;34.00;93.90
17571;DHT22;8903;52.220;20.978;2023-07-16T11:32:04;34.30;93.60
17571;DHT22;8903;52.220;20.978;2023-07-16T11:34:31;35.00;92.80
17571;DHT22;8903;52.220;20.978;2023-07-16T11:37:07;35.60;92.30
17571;DHT22;8903;52.220;20.978;2023-07-16T11:39:35;36.20;91.80
17571;DHT22;8903;52.220;20.978;2023-07-16T11:42:03;36.30;91.70
17571;DHT22;8903;52.220;20.978;2023-07-16T11:44:34;36.00;92.00
17571;DHT22;8903;52.220;20.978;2023-07-16T11:47:03;35.60;92.70
17571;DHT22;8903;52.220;20.978;2023-07-16T11:49:30;35.30;92.70
17571;DHT22;8903;52.220;20.978;2023-07-16T11:51:58;35.00;93.10
17571;DHT22;8903;52.220;20.978;2023-07-16T11:54:25;34.70;93.40
17571;DHT22;8903;52.220;20.978;2023-07-16T11:56:52;34.80;93.50
17571;DHT22;8903;52.220;20.978;2023-07-16T11:59:19;34.70;93.30
17571;DHT22;8903;52.220;20.978;2023-07-16T12:01:48;34.70;93.60
17571;DHT22;8903;52.220;20.978;2023-07-16T12:04:17;34.70;93.50
17571;DHT22;8903;52.220;20.978;2023-07-16T12:06:45;34.50;93.60
17571;DHT22;8903;52.220;20.978;2023-07-16T12:09:12;34.20;93.90
17571;DHT22;8903;52.220;20.978;2023-07-16T12:11:39;34.60;93.70
17571;DHT22;8903;52.220;20.978;2023-07-16T12:14:06;35.10;93.30
17571;DHT22;8903;52.220;20.978;2023-07-16T12:16:34;35.10;93.20
17571;DHT22;8903;52.220;20.978;2023-07-16T12:19:01;35.40;92.80
17571;DHT22;8903;52.220;20.978;2023-07-16T12:21:29;35.50;92.70
17571;DHT22;8903;52.220;20.978;2023-07-16T12:23:56;35.60;92.20
17571;DHT22;8903;52.220;20.978;2023-07-16T12:26:23;35.80;92.10
17571;DHT22;8903;52.220;20.978;2023-07-16T12:28:50;35.80;91.80
17571;DHT22;8903;52.220;20.978;2023-07-16T12:31:17;35.80;91.60
17571;DHT22;8903;52.220;20.978;2023-07-16T12:33:46;35.90;91.50
17571;DHT22;8903;52.220;20.978;2023-07-16T12:36:14;36.00;91.30
17571;DHT22;8903;52.220;20.978;2023-07-16T12:38:43;35.70;91.50
17571;DHT22;8903;52.220;20.978;2023-07-16T12:41:10;35.70;91.60
17571;DHT22;8903;52.220;20.978;2023-07-16T12:43:37;35.90;91.30
17571;DHT22;8903;52.220;20.978;2023-07-16T12:46:05;36.00;91.20
17571;DHT22;8903;52.220;20.978;2023-07-16T12:48:32;36.00;90.80
17571;DHT22;8903;52.220;20.978;2023-07-16T12:50:59;36.10;90.80
17571;DHT22;8903;52.220;20.978;2023-07-16T12:53:26;36.00;90.60
17571;DHT22;8903;52.220;20.978;2023-07-16T12:55:55;36.10;90.40
17571;DHT22;8903;52.220;20.978;2023-07-16T12:58:22;36.00;90.60
17571;DHT22;8903;52.220;20.978;2023-07-16T13:00:49;35.20;91.10
17571;DHT22;8903;52.220;20.978;2023-07-16T13:03:16;34.50;91.60
17571;DHT22;8903;52.220;20.978;2023-07-16T13:05:43;34.30;92.10
17571;DHT22;8903;52.220;20.978;2023-07-16T13:08:10;33.90;92.40
17571;DHT22;8903;52.220;20.978;2023-07-16T13:10:38;34.00;92.00
17571;DHT22;8903;52.220;20.978;2023-07-16T13:13:07;33.90;92.00
17571;DHT22;8903;52.220;20.978;2023-07-16T13:15:34;33.80;91.80
17571;DHT22;8903;52.220;20.978;2023-07-16T13:18:02;33.60;90.90
17571;DHT22;8903;52.220;20.978;2023-07-16T13:20:29;33.30;91.00
17571;DHT22;8903;52.220;20.978;2023-07-16T13:22:56;33.50;91.20
17571;DHT22;8903;52.220;20.978;2023-07-16T13:25:24;33.70;91.40
17571;DHT22;8903;52.220;20.978;2023-07-16T13:27:51;33.60;91.20
17571;DHT22;8903;52.220;20.978;2023-07-16T13:30:20;33.30;91.50
17571;DHT22;8903;52.220;20.978;2023-07-16T13:32:47;33.30;91.70
17571;DHT22;8903;52.220;20.978;2023-07-16T13:35:15;33.30;91.60
17571;DHT22;8903;52.220;20.978;2023-07-16T13:37:43;33.40;91.30
17571;DHT22;8903;52.220;20.978;2023-07-16T13:40:12;33.50;91.10
17571;DHT22;8903;52.220;20.978;2023-07-16T13:42:39;33.60;90.90
17571;DHT22;8903;52.220;20.978;2023-07-16T13:45:07;33.40;90.90
17571;DHT22;8903;52.220;20.978;2023-07-16T13:47:35;33.10;91.50
17571;DHT22;8903;52.220;20.978;2023-07-16T13:50:03;33.20;91.60
17571;DHT22;8903;52.220;20.978;2023-07-16T13:52:30;33.50;91.50
17571;DHT22;8903;52.220;20.978;2023-07-16T13:54:57;33.60;91.40
17571;DHT22;8903;52.220;20.978;2023-07-16T13:57:24;33.90;91.00
17571;DHT22;8903;52.220;20.978;2023-07-16T13:59:51;34.10;90.70
17571;DHT22;8903;52.220;20.978;2023-07-16T14:02:18;34.40;90.60
17571;DHT22;8903;52.220;20.978;2023-07-16T14:04:47;34.40;90.70
17571;DHT22;8903;52.220;20.978;2023-07-16T14:07:14;34.50;90.80
17571;DHT22;8903;52.220;20.978;2023-07-16T14:09:41;34.80;90.50
17571;DHT22;8903;52.220;20.978;2023-07-16T14:12:08;35.20;90.20
17571;DHT22;8903;52.220;20.978;2023-07-16T14:14:35;35.30;90.00
17571;DHT22;8903;52.220;20.978;2023-07-16T14:17:02;35.30;89.70
17571;DHT22;8903;52.220;20.978;2023-07-16T14:19:29;34.70;90.20
17571;DHT22;8903;52.220;20.978;2023-07-16T14:21:58;34.30;90.40
17571;DHT22;8903;52.220;20.978;2023-07-16T14:24:25;33.80;90.80
17571;DHT22;8903;52.220;20.978;2023-07-16T14:26:52;33.60;91.20
17571;DHT22;8903;52.220;20.978;2023-07-16T14:29:19;33.40;91.30
17571;DHT22;8903;52.220;20.978;2023-07-16T14:31:46;33.20;91.10
17571;DHT22;8903;52.220;20.978;2023-07-16T14:34:13;33.00;91.50
17571;DHT22;8903;52.220;20.978;2023-07-16T14:36:41;32.90;91.40
17571;DHT22;8903;52.220;20.978;2023-07-16T14:39:10;32.70;91.80
17571;DHT22;8903;52.220;20.978;2023-07-16T14:41:37;32.50;91.80
17571;DHT22;8903;52.220;20.978;2023-07-16T14:44:04;32.50;91.90
17571;DHT22;8903;52.220;20.978;2023-07-16T14:46:31;32.60;91.80
17571;DHT22;8903;52.220;20.978;2023-07-16T14:48:59;32.60;92.10
17571;DHT22;8903;52.220;20.978;2023-07-16T14:51:26;32.50;91.80
17571;DHT22;8903;52.220;20.978;2023-07-16T14:53:53;32.30;92.10
17571;DHT22;8903;52.220;20.978;2023-07-16T14:56:21;32.10;92.40
17571;DHT22;8903;52.220;20.978;2023-07-16T14:58:48;32.10;92.60
17571;DHT22;8903;52.220;20.978;2023-07-16T15:01:16;31.90;92.90
17571;DHT22;8903;52.220;20.978;2023-07-16T15:03:43;31.80;93.00
17571;DHT22;8903;52.220;20.978;2023-07-16T15:06:10;31.70;93.30
17571;DHT22;8903;52.220;20.978;2023-07-16T15:08:37;31.50;93.40
17571;DHT22;8903;52.220;20.978;2023-07-16T15:11:04;31.40;93.30
17571;DHT22;8903;52.220;20.978;2023-07-16T15:13:32;31.30;93.20
17571;DHT22;8903;52.220;20.978;2023-07-16T15:15:59;31.20;93.30
17571;DHT22;8903;52.220;20.978;2023-07-16T15:18:27;31.10;93.50
17571;DHT22;8903;52.220;20.978;2023-07-16T15:20:57;31.00;93.50
17571;DHT22;8903;52.220;20.978;2023-07-16T15:23:25;30.80;93.70
17571;DHT22;8903;52.220;20.978;2023-07-16T15:25:52;30.80;93.90
17571;DHT22;8903;52.220;20.978;2023-07-16T15:28:20;30.70;94.10
17571;DHT22;8903;52.220;20.978;2023-07-16T15:30:48;30.70;94.10
17571;DHT22;8903;52.220;20.978;2023-07-16T15:33:15;30.70;94.10
17571;DHT22;8903;52.220;20.978;2023-07-16T15:35:42;30.70;94.00